Aberdaron, United Kingdom

6:54 AM GMT on February 28, 2015 (GMT +0000)
Nefyn | Change Station
CLOSE
Current Station
Personal Weather Station
Location: Nefyn, Gwynedd
Elevation: 131 ft
Nearby Weather Stations

Elev 131 ft 52.93 °N, 4.53 °W | Updated 53 seconds ago

Overcast
Overcast
46.6 °F
Feels Like 47 °F
N
2.2
Wind Variable Wind from South
Gusts 5.4 mph

Today
High -- | Low -- °F
--% Chance of Precip.
Yesterday
High -- | Low -- °F
Precip. -- in
7:08 AM 5:55 PM
Waxing Gibbous, 75% visible
Pressure 29.68 in
Visibility 3.1 miles
Clouds Scattered Clouds 200 ft
Overcast 3200 ft
Windchill 47 °F
Dew Point 44 °F
Humidity 92%
Rainfall 0.05 in
Snow Depth Not available.
UV 0 out of 12
Pollen Not available.
Air Quality Not available.
Flu Activity Not available.
METAR EGOV 280550Z AUTO 22011KT 5000 SCT002/// OVC032/// 08/08 Q1005

More Conditions Fewer Conditions

Pressure 29.68 in
Visibility 3.1 miles
Clouds Scattered Clouds 200 ft
Overcast 3200 ft
Windchill 47 °F
Dew Point 44 °F
Humidity 92%
Rainfall 0.05 in
Snow Depth Not available.
UV 0 out of 12
Pollen Not available.
Air Quality Not available.
Flu Activity Not available.
METAR EGOV 280550Z AUTO 22011KT 5000 SCT002/// OVC032/// 08/08 Q1005

More Conditions Fewer Conditions

10-Day Weather Forecast

Almanac

Astronomy

Feb. 28, 2015 Rise Set
Actual Time
Civil Twilight
Nautical Twilight
Astronomical Twilight
Moon
Length of Visible Light
Length of Day
Tomorrow will be .
, % of the Moon is Illuminated

Today's Extremes

Country Highs Country Lows

Community

WunderPhotos

Upload Photos

1,800,978 photos uploaded!

WunderBlogs® & News

Nearby

Air Quality

  Air Quality AQ Index Pollutant
Not available.

Snow Depth

Station Depth Elevation

Earthquake Activity

City Distance Mag. Time & Date
Minimum magnitude displayed is 2.5.

Coastal Water Temperatures

Place Temperature

Nearby Weather Stations